Time,TemperatureF,DewpointF,PressureIn,WindDirection,WindDirectionDegrees,WindSpeedMPH,WindSpeedGustMPH,Humidity,HourlyPrecipIn,Conditions,Clouds,dailyrainin,SoftwareType,DateUTC
2013-02-05 00:00:00,10.0,6.9,30.03,East,101,0.0,0.0,87,0.00,,---,0.00,VWS V14.00,2013-02-05 05:00:00,
2013-02-05 00:05:00,10.1,7.0,30.03,East,101,0.0,1.0,87,0.00,,---,0.00,VWS V14.00,2013-02-05 05:05:00,
2013-02-05 00:10:00,10.2,7.1,30.02,East,101,0.0,1.0,87,0.00,,---,0.00,VWS V14.00,2013-02-05 05:10:00,
2013-02-05 00:15:00,10.3,7.2,30.02,East,101,0.0,1.0,87,0.00,,---,0.00,VWS V14.00,2013-02-05 05:15:00,
2013-02-05 00:20:00,10.3,6.9,30.02,East,101,0.0,1.0,86,0.00,,---,0.00,VWS V14.00,2013-02-05 05:20:00,
2013-02-05 00:25:00,10.2,6.8,30.02,East,101,0.0,1.0,86,0.00,,---,0.00,VWS V14.00,2013-02-05 05:25:00,
2013-02-05 00:30:00,10.1,6.8,30.02,East,101,0.0,0.0,86,0.00,,---,0.00,VWS V14.00,2013-02-05 05:30:00,
2013-02-05 00:35:00,10.0,6.7,30.03,East,100,0.0,0.0,86,0.00,,---,0.00,VWS V14.00,2013-02-05 05:35:00,
2013-02-05 00:40:00,9.8,6.2,30.03,East,100,0.0,1.0,85,0.00,,---,0.00,VWS V14.00,2013-02-05 05:40:00,
2013-02-05 00:45:00,9.5,5.9,30.03,East,101,0.0,1.0,85,0.00,,---,0.00,VWS V14.00,2013-02-05 05:45:00,
2013-02-05 00:50:00,9.6,6.3,30.02,East,100,0.0,1.0,86,0.00,,---,0.00,VWS V14.00,2013-02-05 05:50:00,
2013-02-05 00:55:00,9.8,6.5,30.02,East,101,0.0,1.0,86,0.00,,---,0.00,VWS V14.00,2013-02-05 05:55:00,
2013-02-05 01:00:00,9.9,6.6,30.02,East,101,0.0,0.0,86,0.00,,---,0.00,VWS V14.00,2013-02-05 06:00:00,
2013-02-05 01:05:00,10.1,6.8,30.02,East,101,0.0,1.0,86,0.00,,---,0.00,VWS V14.00,2013-02-05 06:05:00,
2013-02-05 01:10:00,10.1,6.8,30.02,East,101,0.0,1.0,86,0.00,,---,0.00,VWS V14.00,2013-02-05 06:10:00,
2013-02-05 01:15:00,10.1,6.8,30.01,East,101,0.0,1.0,86,0.00,,---,0.00,VWS V14.00,2013-02-05 06:15:00,
2013-02-05 01:20:00,10.0,6.7,30.01,East,101,0.0,1.0,86,0.00,,---,0.00,VWS V14.00,2013-02-05 06:20:00,
2013-02-05 01:25:00,10.0,6.4,30.01,East,101,0.0,1.0,85,0.00,,---,0.00,VWS V14.00,2013-02-05 06:25:00,
2013-02-05 01:30:00,9.9,6.3,30.01,East,101,0.0,0.0,85,0.00,,---,0.00,VWS V14.00,2013-02-05 06:30:00,
2013-02-05 01:35:00,9.8,6.2,30.01,East,101,0.0,0.0,85,0.00,,---,0.00,VWS V14.00,2013-02-05 06:35:00,
2013-02-05 01:40:00,9.7,6.1,30.01,East,101,0.0,0.0,85,0.00,,---,0.00,VWS V14.00,2013-02-05 06:40:00,
2013-02-05 01:45:00,9.7,6.1,30.01,East,101,0.0,0.0,85,0.00,,---,0.00,VWS V14.00,2013-02-05 06:45:00,
2013-02-05 01:50:00,9.5,5.9,30.01,East,101,0.0,0.0,85,0.00,,---,0.00,VWS V14.00,2013-02-05 06:50:00,
2013-02-05 01:55:00,9.2,5.6,30.01,East,101,0.0,0.0,85,0.00,,---,0.00,VWS V14.00,2013-02-05 06:55:00,
2013-02-05 02:00:00,8.9,5.3,30.01,East,101,0.0,0.0,85,0.00,,---,0.00,VWS V14.00,2013-02-05 07:00:00,
2013-02-05 02:05:00,8.8,5.2,30.01,East,101,0.0,0.0,85,0.00,,---,0.00,VWS V14.00,2013-02-05 07:05:00,
2013-02-05 02:10:00,8.7,5.4,30.01,East,101,0.0,0.0,86,0.00,,---,0.00,VWS V14.00,2013-02-05 07:10:00,
2013-02-05 02:15:00,8.7,5.4,30.02,East,101,0.0,0.0,86,0.00,,---,0.00,VWS V14.00,2013-02-05 07:15:00,
2013-02-05 02:20:00,8.5,5.2,30.02,East,100,0.0,0.0,86,0.00,,---,0.00,VWS V14.00,2013-02-05 07:20:00,
2013-02-05 02:25:00,8.3,5.0,30.02,East,101,0.0,0.0,86,0.00,,---,0.00,VWS V14.00,2013-02-05 07:25:00,
2013-02-05 02:30:00,8.2,4.9,30.02,East,100,0.0,0.0,86,0.00,,---,0.00,VWS V14.00,2013-02-05 07:30:00,
2013-02-05 02:35:00,8.1,4.8,30.01,East,101,0.0,0.0,86,0.00,,---,0.00,VWS V14.00,2013-02-05 07:35:00,
2013-02-05 02:40:00,8.0,4.7,30.02,East,101,0.0,0.0,86,0.00,,---,0.00,VWS V14.00,2013-02-05 07:40:00,
2013-02-05 02:45:00,8.0,4.7,30.02,East,101,0.0,0.0,86,0.00,,---,0.00,VWS V14.00,2013-02-05 07:45:00,
2013-02-05 02:50:00,8.0,4.7,30.02,East,101,0.0,0.0,86,0.00,,---,0.00,VWS V14.00,2013-02-05 07:50:00,
2013-02-05 02:55:00,8.0,4.7,30.02,East,101,0.0,0.0,86,0.00,,---,0.00,VWS V14.00,2013-02-05 07:55:00,
2013-02-05 03:00:00,7.9,4.6,30.01,East,101,0.0,0.0,86,0.00,,---,0.00,VWS V14.00,2013-02-05 08:00:00,
2013-02-05 03:05:00,7.8,4.5,30.02,East,101,0.0,0.0,86,0.00,,---,0.00,VWS V14.00,2013-02-05 08:05:00,
2013-02-05 03:10:00,7.8,4.5,30.02,East,101,0.0,0.0,86,0.00,,---,0.00,VWS V14.00,2013-02-05 08:10:00,
2013-02-05 03:15:00,7.6,4.3,30.01,East,101,0.0,0.0,86,0.00,,---,0.00,VWS V14.00,2013-02-05 08:15:00,
2013-02-05 03:20:00,7.5,4.2,30.02,East,101,0.0,0.0,86,0.00,,---,0.00,VWS V14.00,2013-02-05 08:20:00,
2013-02-05 03:25:00,7.4,4.1,30.01,East,101,0.0,0.0,86,0.00,,---,0.00,VWS V14.00,2013-02-05 08:25:00,
2013-02-05 03:30:00,7.4,4.1,30.01,East,101,0.0,0.0,86,0.00,,---,0.00,VWS V14.00,2013-02-05 08:30:00,
2013-02-05 03:35:00,7.3,4.0,30.01,East,101,0.0,0.0,86,0.00,,---,0.00,VWS V14.00,2013-02-05 08:35:00,
2013-02-05 03:40:00,7.2,3.9,30.01,East,101,0.0,0.0,86,0.00,,---,0.00,VWS V14.00,2013-02-05 08:40:00,
2013-02-05 03:45:00,7.1,3.8,30.01,East,101,0.0,0.0,86,0.00,,---,0.00,VWS V14.00,2013-02-05 08:45:00,
2013-02-05 03:50:00,7.1,3.8,30.01,East,101,0.0,0.0,86,0.00,,---,0.00,VWS V14.00,2013-02-05 08:50:00,
2013-02-05 03:55:00,7.0,3.5,30.00,East,101,0.0,0.0,85,0.00,,---,0.00,VWS V14.00,2013-02-05 08:55:00,
2013-02-05 04:00:00,6.9,3.6,30.00,East,101,0.0,0.0,86,0.00,,---,0.00,VWS V14.00,2013-02-05 09:00:00,
2013-02-05 04:05:00,6.7,3.4,30.00,East,101,0.0,0.0,86,0.00,,---,0.00,VWS V14.00,2013-02-05 09:05:00,
2013-02-05 04:10:00,6.5,3.0,30.00,East,101,0.0,0.0,85,0.00,,---,0.00,VWS V14.00,2013-02-05 09:10:00,
2013-02-05 04:15:00,6.4,3.1,30.00,East,101,0.0,0.0,86,0.00,,---,0.00,VWS V14.00,2013-02-05 09:15:00,
2013-02-05 04:20:00,6.3,3.0,30.00,East,101,0.0,0.0,86,0.00,,---,0.00,VWS V14.00,2013-02-05 09:20:00,
2013-02-05 04:25:00,6.3,3.0,30.00,East,101,0.0,0.0,86,0.00,,---,0.00,VWS V14.00,2013-02-05 09:25:00,
2013-02-05 04:30:00,6.2,2.7,30.00,East,101,0.0,0.0,85,0.00,,---,0.00,VWS V14.00,2013-02-05 09:30:00,
2013-02-05 04:35:00,6.1,2.6,30.00,East,101,0.0,0.0,85,0.00,,---,0.00,VWS V14.00,2013-02-05 09:35:00,
2013-02-05 04:40:00,6.0,2.5,30.00,East,100,0.0,0.0,85,0.00,,---,0.00,VWS V14.00,2013-02-05 09:40:00,
2013-02-05 04:45:00,5.9,2.4,30.00,East,101,0.0,0.0,85,0.00,,---,0.00,VWS V14.00,2013-02-05 09:45:00,
2013-02-05 04:50:00,5.8,2.3,30.00,East,101,0.0,0.0,85,0.00,,---,0.00,VWS V14.00,2013-02-05 09:50:00,
2013-02-05 04:55:00,5.8,2.5,30.00,East,101,0.0,0.0,86,0.00,,---,0.00,VWS V14.00,2013-02-05 09:55:00,
2013-02-05 05:00:00,5.8,2.5,30.00,East,101,0.0,0.0,86,0.00,,---,0.00,VWS V14.00,2013-02-05 10:00:00,
2013-02-05 05:06:00,5.7,2.4,30.00,East,101,0.0,0.0,86,0.00,,---,0.00,VWS V14.00,2013-02-05 10:06:00,
2013-02-05 05:11:00,5.7,2.4,29.99,East,101,0.0,0.0,86,0.00,,---,0.00,VWS V14.00,2013-02-05 10:11:00,
2013-02-05 05:16:00,5.7,2.4,29.99,East,101,0.0,0.0,86,0.00,,---,0.00,VWS V14.00,2013-02-05 10:16:00,
2013-02-05 05:21:00,5.7,2.4,29.99,East,101,0.0,0.0,86,0.00,,---,0.00,VWS V14.00,2013-02-05 10:21:00,
2013-02-05 05:26:00,5.7,2.4,29.99,East,101,0.0,0.0,86,0.00,,---,0.00,VWS V14.00,2013-02-05 10:26:00,
2013-02-05 05:30:00,5.7,2.4,29.99,East,100,0.0,0.0,86,0.00,,---,0.00,VWS V14.00,2013-02-05 10:30:00,
2013-02-05 05:31:00,5.6,2.3,29.99,East,101,0.0,0.0,86,0.00,,---,0.00,VWS V14.00,2013-02-05 10:31:00,
2013-02-05 05:36:00,5.6,2.3,29.99,East,101,0.0,0.0,86,0.00,,---,0.00,VWS V14.00,2013-02-05 10:36:00,
2013-02-05 05:41:00,5.6,2.3,30.00,East,101,0.0,0.0,86,0.00,,---,0.00,VWS V14.00,2013-02-05 10:41:00,
2013-02-05 05:46:00,5.5,2.2,29.99,East,101,0.0,0.0,86,0.00,,---,0.00,VWS V14.00,2013-02-05 10:46:00,
2013-02-05 05:51:00,5.6,2.3,30.00,East,101,0.0,0.0,86,0.00,,---,0.00,VWS V14.00,2013-02-05 10:51:00,
2013-02-05 05:56:00,5.7,2.4,30.00,East,101,0.0,0.0,86,0.00,,---,0.00,VWS V14.00,2013-02-05 10:56:00,
2013-02-05 06:00:00,5.7,2.4,30.00,East,101,0.0,0.0,86,0.00,,---,0.00,VWS V14.00,2013-02-05 11:00:00,
2013-02-05 06:01:00,5.7,2.4,30.00,East,101,0.0,0.0,86,0.00,,---,0.00,VWS V14.00,2013-02-05 11:01:00,
2013-02-05 06:06:00,5.7,2.4,30.00,East,101,0.0,1.0,86,0.00,,---,0.00,VWS V14.00,2013-02-05 11:06:00,
2013-02-05 06:11:00,5.5,2.0,30.00,East,101,0.0,1.0,85,0.00,,---,0.00,VWS V14.00,2013-02-05 11:11:00,
2013-02-05 06:16:00,5.3,1.8,30.00,East,101,0.0,1.0,85,0.00,,---,0.00,VWS V14.00,2013-02-05 11:16:00,
2013-02-05 06:21:00,5.2,1.9,30.00,East,101,0.0,1.0,86,0.00,,---,0.00,VWS V14.00,2013-02-05 11:21:00,
2013-02-05 06:26:00,5.1,1.8,30.00,East,101,0.0,1.0,86,0.00,,---,0.00,VWS V14.00,2013-02-05 11:26:00,
2013-02-05 06:30:00,5.1,1.8,30.00,East,101,0.0,1.0,86,0.00,,---,0.00,VWS V14.00,2013-02-05 11:30:00,
2013-02-05 06:31:00,5.1,1.8,30.00,East,101,0.0,0.0,86,0.00,,---,0.00,VWS V14.00,2013-02-05 11:31:00,
2013-02-05 06:36:00,5.1,1.8,30.00,East,101,0.0,0.0,86,0.00,,---,0.00,VWS V14.00,2013-02-05 11:36:00,
2013-02-05 06:41:00,5.2,1.9,30.00,East,101,0.0,1.0,86,0.00,,---,0.00,VWS V14.00,2013-02-05 11:41:00,
2013-02-05 06:46:00,5.3,2.0,30.00,East,101,0.0,2.0,86,0.00,,---,0.00,VWS V14.00,2013-02-05 11:46:00,
2013-02-05 06:51:00,5.3,2.0,29.99,East,101,4.0,4.0,86,0.00,,---,0.00,VWS V14.00,2013-02-05 11:51:00,
2013-02-05 06:56:00,5.4,2.1,29.99,East,101,1.0,4.0,86,0.00,,---,0.00,VWS V14.00,2013-02-05 11:56:00,
2013-02-05 07:00:00,5.3,2.0,29.99,East,101,1.0,4.0,86,0.00,,---,0.00,VWS V14.00,2013-02-05 12:00:00,
2013-02-05 07:01:00,5.2,1.7,29.99,East,101,1.0,2.0,85,0.00,,---,0.00,VWS V14.00,2013-02-05 12:01:00,
2013-02-05 07:06:00,5.2,1.9,29.99,East,101,1.0,5.0,86,0.00,,---,0.00,VWS V14.00,2013-02-05 12:06:00,
2013-02-05 07:11:00,5.2,1.9,29.99,East,101,2.0,5.0,86,0.00,,---,0.00,VWS V14.00,2013-02-05 12:11:00,
2013-02-05 07:16:00,5.3,2.0,29.99,East,101,1.0,5.0,86,0.00,,---,0.00,VWS V14.00,2013-02-05 12:16:00,
2013-02-05 07:21:00,5.5,2.2,29.99,East,101,1.0,5.0,86,0.00,,---,0.00,VWS V14.00,2013-02-05 12:21:00,
2013-02-05 07:26:00,5.8,2.5,29.99,East,101,1.0,5.0,86,0.00,,---,0.00,VWS V14.00,2013-02-05 12:26:00,
2013-02-05 07:30:00,5.9,2.6,29.99,East,100,0.0,5.0,86,0.00,,---,0.00,VWS V14.00,2013-02-05 12:30:00,
2013-02-05 07:31:00,6.2,3.2,29.99,East,100,1.0,2.0,87,0.00,,---,0.00,VWS V14.00,2013-02-05 12:31:00,
2013-02-05 07:36:00,6.5,3.2,30.00,East,101,1.0,2.0,86,0.00,,---,0.00,VWS V14.00,2013-02-05 12:36:00,
2013-02-05 07:41:00,6.8,3.5,30.00,East,101,2.0,2.0,86,0.00,,---,0.00,VWS V14.00,2013-02-05 12:41:00,
2013-02-05 07:46:00,7.0,3.7,29.99,East,101,1.0,4.0,86,0.00,,---,0.00,VWS V14.00,2013-02-05 12:46:00,
2013-02-05 07:51:00,7.2,3.9,29.99,East,101,1.0,4.0,86,0.00,,---,0.00,VWS V14.00,2013-02-05 12:51:00,
2013-02-05 07:56:00,7.4,4.1,29.99,East,101,4.0,4.0,86,0.00,,---,0.00,VWS V14.00,2013-02-05 12:56:00,
2013-02-05 08:00:00,7.5,4.2,29.99,East,101,2.0,4.0,86,0.00,,---,0.00,VWS V14.00,2013-02-05 13:00:00,
2013-02-05 08:01:00,7.6,4.3,29.99,East,100,1.0,4.0,86,0.00,,---,0.00,VWS V14.00,2013-02-05 13:01:00,
2013-02-05 08:06:00,7.8,4.5,29.99,East,101,0.0,4.0,86,0.00,,---,0.00,VWS V14.00,2013-02-05 13:06:00,
2013-02-05 08:11:00,8.0,4.7,29.99,East,101,2.0,4.0,86,0.00,,---,0.00,VWS V14.00,2013-02-05 13:11:00,
2013-02-05 08:16:00,8.2,4.9,29.99,ESE,105,1.0,5.0,86,0.00,,---,0.00,VWS V14.00,2013-02-05 13:16:00,
2013-02-05 08:21:00,8.4,5.1,29.99,SSE,152,5.0,5.0,86,0.00,,---,0.00,VWS V14.00,2013-02-05 13:21:00,
2013-02-05 08:26:00,8.6,5.3,29.99,SSE,161,1.0,5.0,86,0.00,,---,0.00,VWS V14.00,2013-02-05 13:26:00,
2013-02-05 08:30:00,8.7,5.4,29.99,SSE,161,4.0,5.0,86,0.00,,---,0.00,VWS V14.00,2013-02-05 13:30:00,
2013-02-05 08:31:00,8.9,5.6,29.99,SSE,160,4.0,5.0,86,0.00,,---,0.00,VWS V14.00,2013-02-05 13:31:00,
2013-02-05 08:36:00,9.2,5.9,29.99,SSE,161,2.0,5.0,86,0.00,,---,0.00,VWS V14.00,2013-02-05 13:36:00,
2013-02-05 08:41:00,9.5,6.2,29.99,SSE,160,4.0,5.0,86,0.00,,---,0.00,VWS V14.00,2013-02-05 13:41:00,
2013-02-05 08:46:00,9.7,6.4,29.99,SSE,159,1.0,5.0,86,0.00,,---,0.00,VWS V14.00,2013-02-05 13:46:00,
2013-02-05 08:51:00,9.9,6.6,29.99,SSE,159,0.0,5.0,86,0.00,,---,0.00,VWS V14.00,2013-02-05 13:51:00,
2013-02-05 08:56:00,10.3,6.9,29.99,SSE,159,0.0,5.0,86,0.00,,---,0.00,VWS V14.00,2013-02-05 13:56:00,
2013-02-05 09:00:00,10.4,7.1,29.99,SSE,160,2.0,5.0,86,0.00,,---,0.00,VWS V14.00,2013-02-05 14:00:00,
2013-02-05 09:01:00,10.6,7.0,29.99,SSE,159,4.0,5.0,85,0.00,,---,0.00,VWS V14.00,2013-02-05 14:01:00,
2013-02-05 09:06:00,10.9,7.3,29.99,SSE,159,1.0,5.0,85,0.00,,---,0.00,VWS V14.00,2013-02-05 14:06:00,
2013-02-05 09:11:00,11.1,7.2,29.99,SSE,160,2.0,5.0,84,0.00,,---,0.00,VWS V14.00,2013-02-05 14:11:00,
2013-02-05 09:16:00,11.3,7.4,29.98,SSE,164,4.0,5.0,84,0.00,,---,0.00,VWS V14.00,2013-02-05 14:16:00,
2013-02-05 09:21:00,11.5,7.6,29.98,SSE,153,4.0,6.0,84,0.00,,---,0.00,VWS V14.00,2013-02-05 14:21:00,
2013-02-05 09:26:00,11.7,7.8,29.97,SSE,159,5.0,8.0,84,0.00,,---,0.00,VWS V14.00,2013-02-05 14:26:00,
2013-02-05 09:30:00,11.8,7.9,29.96,ESE,122,7.0,8.0,84,0.00,,---,0.00,VWS V14.00,2013-02-05 14:30:00,
2013-02-05 09:31:00,12.1,8.2,29.96,SSE,162,4.0,7.0,84,0.00,,---,0.00,VWS V14.00,2013-02-05 14:31:00,
2013-02-05 09:36:00,12.3,8.1,29.96,SSE,159,6.0,7.0,83,0.00,,---,0.00,VWS V14.00,2013-02-05 14:36:00,
2013-02-05 09:41:00,12.6,8.4,29.96,SSE,158,2.0,7.0,83,0.00,,---,0.00,VWS V14.00,2013-02-05 14:41:00,
2013-02-05 09:46:00,13.0,8.8,29.96,South,169,2.0,8.0,83,0.00,,---,0.00,VWS V14.00,2013-02-05 14:46:00,
2013-02-05 09:51:00,13.4,8.9,29.96,SSE,161,5.0,8.0,82,0.00,,---,0.00,VWS V14.00,2013-02-05 14:51:00,
2013-02-05 09:56:00,13.9,9.4,29.96,South,176,2.0,8.0,82,0.00,,---,0.00,VWS V14.00,2013-02-05 14:56:00,
2013-02-05 10:00:00,14.0,9.5,29.96,SSE,161,4.0,8.0,82,0.00,,---,0.00,VWS V14.00,2013-02-05 15:00:00,
2013-02-05 10:01:00,14.4,9.9,29.96,SSW,202,4.0,7.0,82,0.00,,---,0.00,VWS V14.00,2013-02-05 15:01:00,
2013-02-05 10:06:00,14.9,10.1,29.95,SSE,157,7.0,9.0,81,0.00,,---,0.00,VWS V14.00,2013-02-05 15:06:00,
2013-02-05 10:11:00,15.2,10.1,29.95,SSE,161,7.0,10.0,80,0.00,,---,0.00,VWS V14.00,2013-02-05 15:11:00,
2013-02-05 10:16:00,15.5,10.2,29.95,South,187,3.0,10.0,79,0.00,,---,0.00,VWS V14.00,2013-02-05 15:16:00,
2013-02-05 10:21:00,15.8,10.5,29.94,SSE,167,6.0,10.0,79,0.00,,---,0.00,VWS V14.00,2013-02-05 15:21:00,
2013-02-05 10:26:00,16.0,10.6,29.95,SSW,201,5.0,10.0,79,0.00,,---,0.00,VWS V14.00,2013-02-05 15:26:00,
2013-02-05 10:30:00,16.1,10.8,29.95,SSW,196,2.0,10.0,79,0.00,,---,0.00,VWS V14.00,2013-02-05 15:30:00,
2013-02-05 10:31:00,16.3,10.9,29.95,SSE,168,2.0,9.0,79,0.00,,---,0.00,VWS V14.00,2013-02-05 15:31:00,
2013-02-05 10:36:00,16.7,11.3,29.94,SSW,195,3.0,9.0,79,0.00,,---,0.00,VWS V14.00,2013-02-05 15:36:00,
2013-02-05 10:41:00,17.2,11.8,29.94,SSE,166,2.0,10.0,79,0.00,,---,0.00,VWS V14.00,2013-02-05 15:41:00,
2013-02-05 10:46:00,17.3,11.6,29.93,SSE,157,2.0,10.0,78,0.00,,---,0.00,VWS V14.00,2013-02-05 15:46:00,
2013-02-05 10:51:00,17.5,11.8,29.93,SW,217,5.0,10.0,78,0.00,,---,0.00,VWS V14.00,2013-02-05 15:51:00,
2013-02-05 10:57:00,17.7,12.0,29.93,SSE,162,5.0,10.0,78,0.00,,---,0.00,VWS V14.00,2013-02-05 15:57:00,
2013-02-05 11:00:00,17.8,12.1,29.93,SSE,157,2.0,10.0,78,0.00,,---,0.00,VWS V14.00,2013-02-05 16:00:00,
2013-02-05 11:02:00,17.9,11.9,29.93,SSW,208,8.0,9.0,77,0.00,,---,0.00,VWS V14.00,2013-02-05 16:02:00,
2013-02-05 11:07:00,18.2,12.2,29.93,SSW,198,5.0,9.0,77,0.00,,---,0.00,VWS V14.00,2013-02-05 16:07:00,
2013-02-05 11:12:00,18.6,12.6,29.93,SSE,154,5.0,9.0,77,0.00,,---,0.00,VWS V14.00,2013-02-05 16:12:00,
2013-02-05 11:17:00,18.8,12.8,29.93,SSE,157,5.0,9.0,77,0.00,,---,0.00,VWS V14.00,2013-02-05 16:17:00,
2013-02-05 11:22:00,19.1,13.1,29.94,South,186,3.0,9.0,77,0.00,,---,0.00,VWS V14.00,2013-02-05 16:22:00,
2013-02-05 11:27:00,19.4,13.1,29.93,SSE,162,5.0,9.0,76,0.00,,---,0.00,VWS V14.00,2013-02-05 16:27:00,
2013-02-05 11:30:00,19.4,13.1,29.93,SSE,157,2.0,9.0,76,0.00,,---,0.00,VWS V14.00,2013-02-05 16:30:00,
2013-02-05 11:32:00,19.6,13.6,29.93,South,175,6.0,8.0,77,0.00,,---,0.00,VWS V14.00,2013-02-05 16:32:00,
2013-02-05 12:00:00,20.8,13.8,29.92,SSE,158,5.0,15.0,74,0.00,,---,0.00,VWS V14.00,2013-02-05 17:00:00,
2013-02-05 12:30:00,21.3,14.3,29.91,SSE,158,7.0,13.0,74,0.00,,---,0.00,VWS V14.00,2013-02-05 17:30:00,
2013-02-05 13:00:00,22.1,14.8,29.90,SSE,158,5.0,13.0,73,0.00,,---,0.00,VWS V14.00,2013-02-05 18:00:00,
2013-02-05 13:30:00,22.7,16.0,29.88,SSW,202,5.0,10.0,75,0.00,,---,0.00,VWS V14.00,2013-02-05 18:30:00,
2013-02-05 14:00:00,23.5,17.1,29.86,SSE,158,5.0,11.0,76,0.00,,---,0.00,VWS V14.00,2013-02-05 19:00:00,
2013-02-05 14:30:00,23.5,18.8,29.85,SSE,158,5.0,14.0,82,0.00,,---,0.00,VWS V14.00,2013-02-05 19:30:00,
2013-02-05 15:00:00,23.4,20.4,29.84,South,180,5.0,11.0,88,0.01,,---,0.01,VWS V14.00,2013-02-05 20:00:00,
2013-02-05 15:30:00,24.3,21.3,29.83,SSE,158,5.0,11.0,88,0.03,,---,0.03,VWS V14.00,2013-02-05 20:30:00,
2013-02-05 15:40:00,24.7,21.4,29.83,SSE,160,6.0,9.0,87,0.02,,---,0.02,VWS V14.00,2013-02-05 20:40:00,
2013-02-05 15:45:00,24.9,21.3,29.84,South,189,4.0,9.0,86,0.02,,---,0.02,VWS V14.00,2013-02-05 20:45:00,
2013-02-05 16:06:00,25.6,21.2,29.83,SSW,200,6.0,9.0,83,0.02,,---,0.02,VWS V14.00,2013-02-05 21:06:00,
2013-02-05 16:11:00,25.6,21.2,29.83,SSE,156,4.0,9.0,83,0.02,,---,0.02,VWS V14.00,2013-02-05 21:11:00,
2013-02-05 16:17:00,25.7,21.0,29.83,SSW,198,6.0,10.0,82,0.02,,---,0.02,VWS V14.00,2013-02-05 21:17:00,
2013-02-05 16:22:00,25.8,20.8,29.83,SSW,196,0.0,11.0,81,0.02,,---,0.02,VWS V14.00,2013-02-05 21:22:00,
2013-02-05 16:27:00,25.9,20.9,29.83,WSW,238,4.0,11.0,81,0.02,,---,0.02,VWS V14.00,2013-02-05 21:27:00,
2013-02-05 16:30:00,25.9,20.9,29.83,SSW,211,6.0,11.0,81,0.02,,---,0.02,VWS V14.00,2013-02-05 21:30:00,
2013-02-05 16:32:00,25.9,20.9,29.84,SW,225,8.0,10.0,81,0.00,,---,0.02,VWS V14.00,2013-02-05 21:32:00,
2013-02-05 16:37:00,26.0,20.7,29.84,SSW,202,5.0,12.0,80,0.00,,---,0.02,VWS V14.00,2013-02-05 21:37:00,
2013-02-05 16:42:00,26.0,20.7,29.84,SSW,202,3.0,12.0,80,0.00,,---,0.02,VWS V14.00,2013-02-05 21:42:00,
2013-02-05 16:47:00,26.0,21.0,29.84,SW,225,6.0,12.0,81,0.00,,---,0.02,VWS V14.00,2013-02-05 21:47:00,
2013-02-05 16:52:00,26.1,21.1,29.84,SSW,209,6.0,12.0,81,0.00,,---,0.02,VWS V14.00,2013-02-05 21:52:00,
2013-02-05 16:57:00,26.1,21.1,29.84,SW,221,8.0,13.0,81,0.00,,---,0.02,VWS V14.00,2013-02-05 21:57:00,
2013-02-05 17:00:00,26.2,21.2,29.84,SW,224,4.0,13.0,81,0.00,,---,0.02,VWS V14.00,2013-02-05 22:00:00,
2013-02-05 17:02:00,26.4,21.4,29.84,SW,223,14.0,14.0,81,0.00,,---,0.02,VWS V14.00,2013-02-05 22:02:00,
2013-02-05 17:07:00,26.4,21.4,29.84,SW,225,6.0,15.0,81,0.00,,---,0.02,VWS V14.00,2013-02-05 22:07:00,
2013-02-05 17:12:00,26.4,21.4,29.85,SW,223,8.0,15.0,81,0.00,,---,0.02,VWS V14.00,2013-02-05 22:12:00,
2013-02-05 17:17:00,26.4,21.7,29.85,SW,217,8.0,15.0,82,0.00,,---,0.02,VWS V14.00,2013-02-05 22:17:00,
2013-02-05 17:22:00,26.4,21.7,29.85,SW,224,8.0,15.0,82,0.00,,---,0.02,VWS V14.00,2013-02-05 22:22:00,
2013-02-05 17:27:00,26.4,22.0,29.85,WSW,237,11.0,15.0,83,0.00,,---,0.02,VWS V14.00,2013-02-05 22:27:00,
2013-02-05 17:30:00,26.4,22.0,29.85,SW,224,6.0,15.0,83,0.00,,---,0.02,VWS V14.00,2013-02-05 22:30:00,
2013-02-05 17:32:00,26.4,22.0,29.85,SW,214,9.0,10.0,83,0.00,,---,0.02,VWS V14.00,2013-02-05 22:32:00,
2013-02-05 17:37:00,26.3,22.1,29.85,SSW,211,11.0,12.0,84,0.00,,---,0.02,VWS V14.00,2013-02-05 22:37:00,
2013-02-05 17:42:00,26.3,22.1,29.85,SW,221,4.0,12.0,84,0.00,,---,0.02,VWS V14.00,2013-02-05 22:42:00,
2013-02-05 17:47:00,26.2,22.3,29.85,SW,228,8.0,12.0,85,0.00,,---,0.02,VWS V14.00,2013-02-05 22:47:00,
2013-02-05 17:52:00,26.2,22.3,29.86,WSW,241,7.0,12.0,85,0.00,,---,0.02,VWS V14.00,2013-02-05 22:52:00,
2013-02-05 17:57:00,26.3,22.4,29.86,SW,214,5.0,12.0,85,0.00,,---,0.02,VWS V14.00,2013-02-05 22:57:00,
2013-02-05 18:00:00,26.2,22.3,29.86,SW,214,4.0,12.0,85,0.00,,---,0.02,VWS V14.00,2013-02-05 23:00:00,
2013-02-05 18:02:00,26.3,22.4,29.86,SSW,212,6.0,9.0,85,0.00,,---,0.02,VWS V14.00,2013-02-05 23:02:00,
2013-02-05 18:07:00,26.3,22.4,29.87,SW,226,4.0,9.0,85,0.00,,---,0.02,VWS V14.00,2013-02-05 23:07:00,
2013-02-05 18:12:00,26.3,22.4,29.87,SW,221,6.0,9.0,85,0.00,,---,0.02,VWS V14.00,2013-02-05 23:12:00,
2013-02-05 18:17:00,26.4,22.8,29.87,WSW,253,3.0,9.0,86,0.00,,---,0.02,VWS V14.00,2013-02-05 23:17:00,
2013-02-05 18:22:00,26.4,22.8,29.87,WSW,253,5.0,9.0,86,0.00,,---,0.02,VWS V14.00,2013-02-05 23:22:00,
2013-02-05 18:27:00,26.5,22.9,29.87,WSW,245,3.0,10.0,86,0.00,,---,0.02,VWS V14.00,2013-02-05 23:27:00,
2013-02-05 18:30:00,26.5,22.9,29.87,SW,229,4.0,10.0,86,0.00,,---,0.02,VWS V14.00,2013-02-05 23:30:00,
2013-02-05 18:32:00,26.7,23.1,29.88,SW,232,4.0,8.0,86,0.00,,---,0.02,VWS V14.00,2013-02-05 23:32:00,
2013-02-05 18:37:00,26.7,23.1,29.88,WSW,256,5.0,9.0,86,0.00,,---,0.02,VWS V14.00,2013-02-05 23:37:00,
2013-02-05 18:42:00,26.7,23.1,29.88,SW,229,5.0,9.0,86,0.00,,---,0.02,VWS V14.00,2013-02-05 23:42:00,
2013-02-05 18:47:00,26.7,23.1,29.88,SW,225,4.0,10.0,86,0.00,,---,0.02,VWS V14.00,2013-02-05 23:47:00,
2013-02-05 18:52:00,26.7,23.1,29.88,WSW,244,3.0,10.0,86,0.00,,---,0.02,VWS V14.00,2013-02-05 23:52:00,
2013-02-05 18:57:00,26.7,23.1,29.89,West,260,3.0,10.0,86,0.00,,---,0.02,VWS V14.00,2013-02-05 23:57:00,
2013-02-05 19:00:00,26.7,23.1,29.89,West,259,3.0,10.0,86,0.00,,---,0.02,VWS V14.00,2013-02-06 00:00:00,
2013-02-05 19:02:00,26.7,23.4,29.89,WSW,256,6.0,8.0,87,0.00,,---,0.02,VWS V14.00,2013-02-06 00:02:00,
2013-02-05 19:07:00,26.8,23.5,29.89,WSW,250,5.0,8.0,87,0.00,,---,0.02,VWS V14.00,2013-02-06 00:07:00,
2013-02-05 19:12:00,26.8,23.5,29.89,WSW,254,4.0,8.0,87,0.00,,---,0.02,VWS V14.00,2013-02-06 00:12:00,
2013-02-05 19:17:00,26.9,23.6,29.89,WSW,255,4.0,8.0,87,0.00,,---,0.02,VWS V14.00,2013-02-06 00:17:00,
2013-02-05 19:22:00,26.9,23.6,29.90,WSW,255,4.0,8.0,87,0.00,,---,0.02,VWS V14.00,2013-02-06 00:22:00,
2013-02-05 19:27:00,26.9,23.6,29.90,West,277,3.0,8.0,87,0.00,,---,0.02,VWS V14.00,2013-02-06 00:27:00,
2013-02-05 19:30:00,26.9,23.6,29.90,West,277,3.0,8.0,87,0.00,,---,0.02,VWS V14.00,2013-02-06 00:30:00,
2013-02-05 19:32:00,27.0,23.6,29.90,West,274,6.0,6.0,87,0.00,,---,0.02,VWS V14.00,2013-02-06 00:32:00,
2013-02-05 19:37:00,27.1,23.8,29.91,West,262,5.0,8.0,87,0.00,,---,0.02,VWS V14.00,2013-02-06 00:37:00,
2013-02-05 19:42:00,27.2,23.9,29.91,NW,309,2.0,16.0,87,0.00,,---,0.02,VWS V14.00,2013-02-06 00:42:00,
2013-02-05 19:47:00,27.3,23.7,29.91,WNW,300,9.0,16.0,86,0.00,,---,0.02,VWS V14.00,2013-02-06 00:47:00,
2013-02-05 19:52:00,27.3,23.4,29.91,West,277,6.0,16.0,85,0.00,,---,0.02,VWS V14.00,2013-02-06 00:52:00,
2013-02-05 19:57:00,27.3,23.4,29.92,West,275,4.0,16.0,85,0.00,,---,0.02,VWS V14.00,2013-02-06 00:57:00,
2013-02-05 20:00:00,27.3,23.4,29.92,WNW,300,5.0,16.0,85,0.00,,---,0.02,VWS V14.00,2013-02-06 01:00:00,
2013-02-05 20:02:00,27.2,23.0,29.92,WNW,291,6.0,11.0,84,0.00,,---,0.02,VWS V14.00,2013-02-06 01:02:00,
2013-02-05 20:07:00,27.2,23.0,29.92,West,281,3.0,11.0,84,0.00,,---,0.02,VWS V14.00,2013-02-06 01:07:00,
2013-02-05 20:12:00,27.1,23.2,29.92,WNW,287,1.0,11.0,85,0.00,,---,0.02,VWS V14.00,2013-02-06 01:12:00,
2013-02-05 20:17:00,27.0,22.8,29.92,WNW,282,6.0,11.0,84,0.00,,---,0.02,VWS V14.00,2013-02-06 01:17:00,
2013-02-05 20:22:00,26.9,23.0,29.92,WNW,292,3.0,11.0,85,0.00,,---,0.02,VWS V14.00,2013-02-06 01:22:00,
2013-02-05 20:27:00,26.8,22.6,29.93,WSW,258,3.0,11.0,84,0.00,,---,0.02,VWS V14.00,2013-02-06 01:27:00,
2013-02-05 20:30:00,26.8,22.6,29.93,WNW,285,8.0,11.0,84,0.00,,---,0.02,VWS V14.00,2013-02-06 01:30:00,
2013-02-05 20:32:00,26.7,22.5,29.93,WNW,302,3.0,11.0,84,0.00,,---,0.02,VWS V14.00,2013-02-06 01:32:00,
2013-02-05 20:37:00,26.7,22.5,29.94,NW,316,5.0,11.0,84,0.00,,---,0.02,VWS V14.00,2013-02-06 01:37:00,
2013-02-05 20:42:00,26.6,22.4,29.94,NW,319,2.0,11.0,84,0.00,,---,0.02,VWS V14.00,2013-02-06 01:42:00,
2013-02-05 20:47:00,26.6,22.7,29.94,NW,304,4.0,11.0,85,0.00,,---,0.02,VWS V14.00,2013-02-06 01:47:00,
2013-02-05 20:52:00,26.5,22.3,29.95,NNW,346,2.0,11.0,84,0.00,,---,0.02,VWS V14.00,2013-02-06 01:52:00,
2013-02-05 20:58:00,26.4,22.2,29.95,NW,314,3.0,13.0,84,0.00,,---,0.02,VWS V14.00,2013-02-06 01:58:00,
2013-02-05 21:00:00,26.4,22.2,29.95,NW,314,3.0,13.0,84,0.00,,---,0.02,VWS V14.00,2013-02-06 02:00:00,
2013-02-05 21:03:00,26.3,21.9,29.95,NW,307,5.0,10.0,83,0.00,,---,0.02,VWS V14.00,2013-02-06 02:03:00,
2013-02-05 21:08:00,26.2,21.8,29.96,NW,321,6.0,10.0,83,0.00,,---,0.02,VWS V14.00,2013-02-06 02:08:00,
2013-02-05 21:13:00,26.1,21.6,29.96,NW,313,5.0,10.0,83,0.00,,---,0.02,VWS V14.00,2013-02-06 02:13:00,
2013-02-05 21:18:00,25.9,21.5,29.96,NW,323,12.0,12.0,83,0.00,,---,0.02,VWS V14.00,2013-02-06 02:18:00,
2013-02-05 21:23:00,25.7,21.3,29.97,NNW,329,5.0,13.0,83,0.00,,---,0.02,VWS V14.00,2013-02-06 02:23:00,
2013-02-05 21:28:00,25.3,20.6,29.97,NNW,348,10.0,10.0,82,0.00,,---,0.02,VWS V14.00,2013-02-06 02:28:00,
2013-02-05 21:30:00,25.3,20.6,29.97,WNW,295,8.0,16.0,82,0.00,,---,0.02,VWS V14.00,2013-02-06 02:30:00,
2013-02-05 21:33:00,25.1,20.1,29.97,WNW,296,5.0,14.0,81,0.00,,---,0.02,VWS V14.00,2013-02-06 02:33:00,
2013-02-05 21:38:00,24.9,19.9,29.98,NNW,328,9.0,14.0,81,0.00,,---,0.02,VWS V14.00,2013-02-06 02:38:00,
2013-02-05 21:43:00,24.8,19.8,29.98,NNW,328,5.0,14.0,81,0.00,,---,0.02,VWS V14.00,2013-02-06 02:43:00,
2013-02-05 21:48:00,24.7,19.7,29.98,NW,323,3.0,14.0,81,0.00,,---,0.02,VWS V14.00,2013-02-06 02:48:00,
2013-02-05 21:53:00,24.4,19.4,29.99,WNW,294,11.0,14.0,81,0.00,,---,0.02,VWS V14.00,2013-02-06 02:53:00,
2013-02-05 21:58:00,24.2,18.6,29.99,NNW,328,6.0,10.0,79,0.00,,---,0.02,VWS V14.00,2013-02-06 02:58:00,
2013-02-05 22:00:00,24.2,18.6,29.99,NW,310,11.0,15.0,79,0.00,,---,0.02,VWS V14.00,2013-02-06 03:00:00,
2013-02-05 22:03:00,24.0,18.1,29.99,WNW,290,9.0,14.0,78,0.00,,---,0.02,VWS V14.00,2013-02-06 03:03:00,
2013-02-05 22:08:00,23.9,18.0,30.00,NW,311,4.0,14.0,78,0.00,,---,0.02,VWS V14.00,2013-02-06 03:08:00,
2013-02-05 22:13:00,23.8,18.0,30.00,NNW,344,8.0,14.0,78,0.00,,---,0.02,VWS V14.00,2013-02-06 03:13:00,
2013-02-05 22:18:00,23.8,18.0,30.00,NW,309,3.0,14.0,78,0.00,,---,0.02,VWS V14.00,2013-02-06 03:18:00,
2013-02-05 22:23:00,23.7,17.9,30.01,WNW,294,8.0,14.0,78,0.00,,---,0.02,VWS V14.00,2013-02-06 03:23:00,
2013-02-05 22:28:00,23.6,17.5,30.01,NNW,340,8.0,11.0,77,0.00,,---,0.02,VWS V14.00,2013-02-06 03:28:00,
2013-02-05 22:30:00,23.6,17.5,30.01,WNW,285,10.0,14.0,77,0.00,,---,0.02,VWS V14.00,2013-02-06 03:30:00,
2013-02-05 22:33:00,23.4,17.3,30.02,NW,312,6.0,11.0,77,0.00,,---,0.02,VWS V14.00,2013-02-06 03:33:00,
2013-02-05 22:38:00,23.1,16.7,30.02,NW,313,7.0,14.0,76,0.00,,---,0.02,VWS V14.00,2013-02-06 03:38:00,
2013-02-05 22:43:00,22.7,16.3,30.03,WNW,301,4.0,14.0,76,0.00,,---,0.02,VWS V14.00,2013-02-06 03:43:00,
2013-02-05 22:48:00,22.2,15.5,30.03,WNW,301,5.0,14.0,75,0.00,,---,0.02,VWS V14.00,2013-02-06 03:48:00,
2013-02-05 22:53:00,21.8,15.1,30.03,WNW,290,4.0,14.0,75,0.00,,---,0.02,VWS V14.00,2013-02-06 03:53:00,
2013-02-05 22:58:00,21.5,14.8,30.04,WNW,285,4.0,6.0,75,0.00,,---,0.02,VWS V14.00,2013-02-06 03:58:00,
2013-02-05 23:00:00,21.5,14.8,30.04,NNW,334,7.0,14.0,75,0.00,,---,0.02,VWS V14.00,2013-02-06 04:00:00,
2013-02-05 23:03:00,21.4,14.7,30.04,WNW,296,5.0,7.0,75,0.00,,---,0.02,VWS V14.00,2013-02-06 04:03:00,
2013-02-05 23:08:00,21.3,14.6,30.05,WNW,294,4.0,7.0,75,0.00,,---,0.02,VWS V14.00,2013-02-06 04:08:00,
2013-02-05 23:13:00,21.2,14.5,30.05,NW,326,1.0,7.0,75,0.00,,---,0.02,VWS V14.00,2013-02-06 04:13:00,
2013-02-05 23:18:00,20.9,14.2,30.04,NW,308,2.0,7.0,75,0.00,,---,0.02,VWS V14.00,2013-02-06 04:18:00,
2013-02-05 23:23:00,20.7,14.0,30.04,NW,306,1.0,7.0,75,0.00,,---,0.02,VWS V14.00,2013-02-06 04:23:00,
2013-02-05 23:28:00,20.4,13.8,30.04,NW,306,0.0,2.0,75,0.00,,---,0.02,VWS V14.00,2013-02-06 04:28:00,
2013-02-05 23:30:00,20.5,13.9,30.04,NW,307,2.0,7.0,75,0.00,,---,0.02,VWS V14.00,2013-02-06 04:30:00,
2013-02-05 23:33:00,20.2,13.6,30.04,NW,306,0.0,2.0,75,0.00,,---,0.02,VWS V14.00,2013-02-06 04:33:00,
2013-02-05 23:38:00,19.9,13.3,30.05,NW,306,0.0,2.0,75,0.00,,---,0.02,VWS V14.00,2013-02-06 04:38:00,
2013-02-05 23:43:00,19.6,13.3,30.05,NW,307,1.0,2.0,76,0.00,,---,0.02,VWS V14.00,2013-02-06 04:43:00,
2013-02-05 23:48:00,19.4,13.1,30.05,NW,306,2.0,2.0,76,0.00,,---,0.02,VWS V14.00,2013-02-06 04:48:00,
2013-02-05 23:53:00,19.1,12.8,30.05,NW,306,0.0,2.0,76,0.00,,---,0.02,VWS V14.00,2013-02-06 04:53:00,
2013-02-05 23:58:00,18.9,12.6,30.05,NW,306,0.0,0.0,76,0.00,,---,0.00,VWS V14.00,2013-02-06 04:58:00,